createdAt,value
2018-06-21T00:00:57.182Z,17.85
2018-06-21T00:01:57.162Z,17.85
2018-06-21T00:02:57.086Z,17.79
2018-06-21T00:03:57.046Z,17.89
2018-06-21T00:04:57.000Z,17.86
2018-06-21T00:05:56.949Z,17.85
2018-06-21T00:06:56.927Z,17.83
2018-06-21T00:07:56.861Z,17.91
2018-06-21T00:08:56.810Z,17.91
2018-06-21T00:09:56.768Z,17.83
2018-06-21T00:10:56.721Z,17.93
2018-06-21T00:11:56.727Z,17.91
2018-06-21T00:12:56.629Z,17.89
2018-06-21T00:13:56.588Z,17.85
2018-06-21T00:14:56.535Z,17.80
2018-06-21T00:15:56.488Z,17.86
2018-06-21T00:16:56.451Z,17.78
2018-06-21T00:17:56.428Z,17.67
2018-06-21T00:18:56.357Z,17.70
2018-06-21T00:19:56.310Z,17.71
2018-06-21T00:20:56.256Z,17.68
2018-06-21T00:21:56.209Z,17.70
2018-06-21T00:23:03.292Z,17.71
2018-06-21T00:23:56.122Z,17.70
2018-06-21T00:24:56.072Z,17.70
2018-06-21T00:25:56.027Z,17.59
2018-06-21T00:26:55.982Z,17.63
2018-06-21T00:27:55.961Z,17.53
2018-06-21T00:28:55.892Z,17.57
2018-06-21T00:29:55.840Z,17.53
2018-06-21T00:30:55.798Z,17.54
2018-06-21T00:31:55.752Z,17.54
2018-06-21T00:33:02.887Z,17.54
2018-06-21T00:33:55.658Z,17.51
2018-06-21T00:34:55.611Z,17.49
2018-06-21T00:35:55.566Z,17.53
2018-06-21T00:36:55.518Z,17.48
2018-06-21T00:37:55.541Z,17.45
2018-06-21T00:38:55.428Z,17.54
2018-06-21T00:39:55.385Z,17.41
2018-06-21T00:40:55.329Z,17.35
2018-06-21T00:41:55.287Z,17.30
2018-06-21T00:42:55.266Z,17.31
2018-06-21T00:43:55.196Z,17.33
2018-06-21T00:44:55.146Z,17.37
2018-06-21T00:45:55.100Z,17.33
2018-06-21T00:46:55.056Z,17.33
2018-06-21T00:47:55.031Z,17.20
2018-06-21T00:48:54.961Z,17.24
2018-06-21T00:49:54.918Z,17.20
2018-06-21T00:50:54.869Z,17.16
2018-06-21T00:51:54.820Z,17.19
2018-06-21T00:52:54.799Z,17.11
2018-06-21T00:53:54.729Z,17.23
2018-06-21T00:54:54.686Z,17.26
2018-06-21T00:55:54.637Z,17.19
2018-06-21T00:56:54.585Z,17.14
2018-06-21T00:57:54.564Z,17.23
2018-06-21T00:58:54.495Z,17.14
2018-06-21T00:59:54.453Z,17.12
2018-06-21T01:00:54.402Z,17.19
2018-06-21T01:01:54.362Z,17.14
2018-06-21T01:02:54.332Z,17.14
2018-06-21T01:03:54.264Z,17.14
2018-06-21T01:04:54.215Z,17.09
2018-06-21T01:05:54.170Z,17.05
2018-06-21T01:06:54.133Z,17.02
2018-06-21T01:07:54.104Z,17.01
2018-06-21T01:08:54.034Z,16.93
2018-06-21T01:09:53.988Z,16.99
2018-06-21T01:10:53.939Z,16.93
2018-06-21T01:11:53.894Z,16.90
2018-06-21T01:12:53.868Z,16.93
2018-06-21T01:13:53.798Z,16.87
2018-06-21T01:14:53.756Z,16.93
2018-06-21T01:15:53.709Z,17.02
2018-06-21T01:16:53.666Z,16.89
2018-06-21T01:17:53.637Z,16.84
2018-06-21T01:18:53.569Z,16.84
2018-06-21T01:19:53.523Z,16.90
2018-06-21T01:20:53.475Z,16.90
2018-06-21T01:21:53.428Z,16.83
2018-06-21T01:22:53.409Z,16.79
2018-06-21T01:23:53.338Z,16.80
2018-06-21T01:24:53.290Z,16.83
2018-06-21T01:25:53.239Z,16.74
2018-06-21T01:26:53.199Z,16.84
2018-06-21T01:27:53.187Z,16.84
2018-06-21T01:28:53.109Z,16.79
2018-06-21T01:29:53.053Z,16.83
2018-06-21T01:30:53.020Z,16.84
2018-06-21T01:31:52.970Z,16.76
2018-06-21T01:32:52.915Z,16.82
2018-06-21T01:33:52.894Z,16.84
2018-06-21T01:34:52.819Z,16.74
2018-06-21T01:35:52.781Z,16.71
2018-06-21T01:36:52.726Z,16.69
2018-06-21T01:37:52.683Z,16.87
2018-06-21T01:38:52.660Z,16.87
2018-06-21T01:39:52.593Z,16.74
2018-06-21T01:40:52.540Z,16.72
2018-06-21T01:41:52.496Z,16.75
2018-06-21T01:42:52.457Z,16.84
2018-06-21T01:43:52.431Z,16.76
2018-06-21T01:44:52.353Z,16.75
2018-06-21T01:45:52.304Z,16.75
2018-06-21T01:46:52.269Z,16.72
2018-06-21T01:47:52.219Z,16.68
2018-06-21T01:48:52.197Z,16.65
2018-06-21T01:49:52.126Z,16.66
2018-06-21T01:50:52.096Z,16.66
2018-06-21T01:51:52.030Z,16.65
2018-06-21T01:52:51.981Z,16.68
2018-06-21T01:53:51.961Z,16.65
2018-06-21T01:54:51.891Z,16.65
2018-06-21T01:55:51.840Z,16.65
2018-06-21T01:56:51.795Z,16.65
2018-06-21T01:57:51.746Z,16.69
2018-06-21T01:58:51.724Z,16.64
2018-06-21T01:59:51.650Z,16.66
2018-06-21T02:00:51.612Z,16.62
2018-06-21T02:01:51.559Z,16.62
2018-06-21T02:02:51.515Z,16.62
2018-06-21T02:03:51.495Z,16.54
2018-06-21T02:04:51.428Z,16.57
2018-06-21T02:05:51.373Z,16.65
2018-06-21T02:06:51.328Z,16.61
2018-06-21T02:07:51.284Z,16.64
2018-06-21T02:08:51.264Z,16.68
2018-06-21T02:09:51.188Z,16.59
2018-06-21T02:10:51.148Z,16.56
2018-06-21T02:11:51.094Z,16.54
2018-06-21T02:12:51.048Z,16.54
2018-06-21T02:13:51.025Z,16.59
2018-06-21T02:14:50.957Z,16.46
2018-06-21T02:15:50.909Z,16.44
2018-06-21T02:16:50.860Z,16.43
2018-06-21T02:17:50.819Z,16.46
2018-06-21T02:18:50.793Z,16.44
2018-06-21T02:19:50.726Z,16.47
2018-06-21T02:20:50.676Z,16.41
2018-06-21T02:21:50.628Z,16.43
2018-06-21T02:22:50.581Z,16.34
2018-06-21T02:23:50.557Z,16.36
2018-06-21T02:24:50.487Z,16.34
2018-06-21T02:25:50.449Z,16.31
2018-06-21T02:26:50.397Z,16.38
2018-06-21T02:27:50.347Z,16.34
2018-06-21T02:28:50.327Z,16.36
2018-06-21T02:29:50.254Z,16.35
2018-06-21T02:30:50.208Z,16.32
2018-06-21T02:31:50.164Z,16.29
2018-06-21T02:32:50.114Z,16.28
2018-06-21T02:33:50.095Z,16.36
2018-06-21T02:34:50.024Z,16.32
2018-06-21T02:35:49.988Z,16.32
2018-06-21T02:36:49.928Z,16.31
2018-06-21T02:37:49.881Z,16.34
2018-06-21T02:38:49.854Z,16.29
2018-06-21T02:39:49.787Z,16.35
2018-06-21T02:40:49.738Z,16.32
2018-06-21T02:41:49.691Z,16.28
2018-06-21T02:42:49.648Z,16.31
2018-06-21T02:43:49.623Z,16.16
2018-06-21T02:44:49.550Z,16.28
2018-06-21T02:45:49.505Z,16.17
2018-06-21T02:46:49.458Z,16.24
2018-06-21T02:47:49.416Z,16.12
2018-06-21T02:48:49.384Z,16.24
2018-06-21T02:49:49.320Z,16.17
2018-06-21T02:50:49.267Z,16.12
2018-06-21T02:51:49.222Z,16.06
2018-06-21T02:52:49.173Z,16.06
2018-06-21T02:53:49.161Z,16.09
2018-06-21T02:54:49.088Z,16.09
2018-06-21T02:55:49.036Z,16.17
2018-06-21T02:56:48.992Z,16.12
2018-06-21T02:57:48.948Z,16.06
2018-06-21T02:58:48.919Z,16.09
2018-06-21T02:59:48.856Z,16.21
2018-06-21T03:00:48.802Z,16.13
2018-06-21T03:01:48.756Z,16.25
2018-06-21T03:02:48.713Z,16.12
2018-06-21T03:03:48.715Z,16.20
2018-06-21T03:04:48.610Z,16.21
2018-06-21T03:05:48.570Z,16.25
2018-06-21T03:06:48.518Z,16.21
2018-06-21T03:07:48.475Z,16.26
2018-06-21T03:08:48.425Z,16.31
2018-06-21T03:09:48.401Z,16.34
2018-06-21T03:10:48.333Z,16.38
2018-06-21T03:11:48.294Z,16.36
2018-06-21T03:12:48.243Z,16.49
2018-06-21T03:13:48.199Z,16.54
2018-06-21T03:14:48.168Z,16.56
2018-06-21T03:15:48.100Z,16.59
2018-06-21T03:16:48.050Z,16.64
2018-06-21T03:17:48.000Z,16.65
2018-06-21T03:18:47.955Z,16.76
2018-06-21T03:19:47.932Z,16.80
2018-06-21T03:20:47.865Z,16.83
2018-06-21T03:21:47.816Z,16.76
2018-06-21T03:22:47.769Z,16.87
2018-06-21T03:23:47.731Z,16.83
2018-06-21T03:24:47.700Z,17.02
2018-06-21T03:25:47.630Z,16.90
2018-06-21T03:26:47.585Z,16.99
2018-06-21T03:27:47.538Z,16.94
2018-06-21T03:28:47.489Z,16.98
2018-06-21T03:29:47.471Z,17.01
2018-06-21T03:30:47.400Z,17.02
2018-06-21T03:31:47.349Z,17.02
2018-06-21T03:32:47.305Z,17.02
2018-06-21T03:33:47.256Z,17.01
2018-06-21T03:34:47.230Z,17.09
2018-06-21T03:35:47.166Z,17.09
2018-06-21T03:36:47.112Z,17.09
2018-06-21T03:37:47.070Z,17.11
2018-06-21T03:38:47.023Z,17.17
2018-06-21T03:39:47.002Z,17.09
2018-06-21T03:40:46.934Z,17.11
2018-06-21T03:41:46.883Z,17.14
2018-06-21T03:42:46.839Z,17.16
2018-06-21T03:43:46.792Z,17.20
2018-06-21T03:44:46.769Z,17.22
2018-06-21T03:45:46.698Z,17.14
2018-06-21T03:46:46.649Z,17.24
2018-06-21T03:47:46.604Z,17.23
2018-06-21T03:48:46.561Z,17.22
2018-06-21T03:49:46.536Z,17.12
2018-06-21T03:50:46.468Z,17.30
2018-06-21T03:51:46.420Z,17.23
2018-06-21T03:52:46.370Z,17.23
2018-06-21T03:53:46.327Z,17.31
2018-06-21T03:54:46.306Z,17.33
2018-06-21T03:55:46.236Z,17.31
2018-06-21T03:56:46.184Z,17.30
2018-06-21T03:57:46.137Z,17.31
2018-06-21T03:58:46.100Z,17.30
2018-06-21T03:59:46.066Z,17.35
2018-06-21T04:00:45.998Z,17.33
2018-06-21T04:01:45.955Z,17.30
2018-06-21T04:02:45.908Z,17.27
2018-06-21T04:03:45.860Z,17.38
2018-06-21T04:04:45.835Z,17.41
2018-06-21T04:05:45.770Z,17.41
2018-06-21T04:06:45.719Z,17.38
2018-06-21T04:07:45.676Z,17.41
2018-06-21T04:08:45.633Z,17.42
2018-06-21T04:09:45.604Z,17.53
2018-06-21T04:10:45.542Z,17.46
2018-06-21T04:11:45.492Z,17.46
2018-06-21T04:12:45.443Z,17.54
2018-06-21T04:13:45.396Z,17.57
2018-06-21T04:14:45.376Z,17.59
2018-06-21T04:15:45.304Z,17.56
2018-06-21T04:16:45.256Z,17.64
2018-06-21T04:17:45.208Z,17.56
2018-06-21T04:18:45.174Z,17.67
2018-06-21T04:19:45.142Z,17.73
2018-06-21T04:20:45.080Z,17.71
2018-06-21T04:21:45.038Z,17.73
2018-06-21T04:22:44.979Z,17.68
2018-06-21T04:23:44.933Z,17.71
2018-06-21T04:24:44.911Z,17.80
2018-06-21T04:25:44.839Z,17.80
2018-06-21T04:26:44.795Z,17.88
2018-06-21T04:27:44.750Z,17.97
2018-06-21T04:28:44.703Z,18.05
2018-06-21T04:29:44.679Z,18.00
2018-06-21T04:30:44.608Z,18.01
2018-06-21T04:31:44.561Z,17.98
2018-06-21T04:32:44.514Z,18.12
2018-06-21T04:33:44.472Z,18.16
2018-06-21T04:34:44.426Z,18.10
2018-06-21T04:35:44.407Z,18.09
2018-06-21T04:36:44.336Z,18.16
2018-06-21T04:37:44.291Z,18.09
2018-06-21T04:38:44.244Z,18.16
2018-06-21T04:39:44.194Z,18.18
2018-06-21T04:40:44.172Z,18.22
2018-06-21T04:41:44.101Z,18.23
2018-06-21T04:42:44.064Z,18.30
2018-06-21T04:43:44.009Z,18.34
2018-06-21T04:44:43.965Z,18.26
2018-06-21T04:45:43.949Z,18.37
2018-06-21T04:46:43.872Z,18.38
2018-06-21T04:47:43.829Z,18.48
2018-06-21T04:48:43.790Z,18.46
2018-06-21T04:49:43.738Z,18.46
2018-06-21T04:50:43.711Z,18.48
2018-06-21T04:51:43.645Z,18.58
2018-06-21T04:52:43.656Z,18.59
2018-06-21T04:53:43.550Z,18.56
2018-06-21T04:54:43.507Z,18.62
2018-06-21T04:55:43.484Z,18.58
2018-06-21T04:56:43.415Z,18.68
2018-06-21T04:57:43.374Z,18.75
2018-06-21T04:58:43.324Z,18.73
2018-06-21T04:59:43.277Z,18.78
2018-06-21T05:00:43.254Z,18.68
2018-06-21T05:01:43.187Z,18.78
2018-06-21T05:02:43.139Z,18.80
2018-06-21T05:03:43.096Z,18.90
2018-06-21T05:04:43.069Z,18.90
2018-06-21T05:05:43.034Z,18.81
2018-06-21T05:06:42.956Z,18.89
2018-06-21T05:07:42.915Z,18.95
2018-06-21T05:08:42.867Z,18.89
2018-06-21T05:09:42.823Z,19.00
2018-06-21T05:10:42.799Z,18.92
2018-06-21T05:11:42.731Z,18.92
2018-06-21T05:12:42.687Z,18.99
2018-06-21T05:13:42.644Z,18.98
2018-06-21T05:14:42.593Z,18.93
2018-06-21T05:15:42.567Z,19.04
2018-06-21T05:16:42.503Z,18.90
2018-06-21T05:17:42.456Z,18.93
2018-06-21T05:18:42.411Z,18.90
2018-06-21T05:19:42.367Z,18.89
2018-06-21T05:20:42.341Z,18.85
2018-06-21T05:21:42.284Z,18.89
2018-06-21T05:22:42.235Z,18.89
2018-06-21T05:23:42.184Z,18.83
2018-06-21T05:24:42.136Z,18.85
2018-06-21T05:25:42.113Z,18.83
2018-06-21T05:26:42.048Z,18.81
2018-06-21T05:27:42.006Z,18.83
2018-06-21T05:28:41.960Z,18.90
2018-06-21T05:29:41.909Z,18.83
2018-06-21T05:30:41.896Z,18.92
2018-06-21T05:31:41.824Z,18.89
2018-06-21T05:32:41.773Z,18.95
2018-06-21T05:33:41.731Z,18.98
2018-06-21T05:34:41.682Z,18.95
2018-06-21T05:35:41.661Z,19.00
2018-06-21T05:36:41.593Z,18.96
2018-06-21T05:37:41.545Z,18.98
2018-06-21T05:38:41.502Z,18.96
2018-06-21T05:39:41.455Z,19.07
2018-06-21T05:40:41.431Z,18.96
2018-06-21T05:41:41.362Z,19.05
2018-06-21T05:42:41.317Z,19.00
2018-06-21T05:43:41.275Z,19.05
2018-06-21T05:44:41.239Z,18.96
2018-06-21T05:45:41.219Z,18.99
2018-06-21T05:46:41.139Z,19.04
2018-06-21T05:47:41.091Z,18.95
2018-06-21T05:48:41.046Z,18.95
2018-06-21T05:49:41.014Z,19.04
2018-06-21T05:50:40.982Z,18.89
2018-06-21T05:51:40.911Z,18.90
2018-06-21T05:52:40.867Z,18.92
2018-06-21T05:53:40.819Z,18.88
2018-06-21T05:54:40.772Z,18.88
2018-06-21T05:55:40.727Z,18.90
2018-06-21T05:56:40.765Z,18.78
2018-06-21T05:57:40.636Z,18.77
2018-06-21T05:58:40.592Z,18.78
2018-06-21T05:59:40.548Z,18.81
2018-06-21T06:00:40.497Z,18.81
2018-06-21T06:01:40.479Z,18.73
2018-06-21T06:02:40.407Z,18.77
2018-06-21T06:03:40.363Z,18.75
2018-06-21T06:04:40.320Z,18.75
2018-06-21T06:05:40.266Z,18.77
2018-06-21T06:06:40.245Z,18.66
2018-06-21T06:07:40.185Z,18.62
2018-06-21T06:08:40.130Z,18.63
2018-06-21T06:09:40.086Z,18.66
2018-06-21T06:10:40.047Z,18.62
2018-06-21T06:11:40.016Z,18.58
2018-06-21T06:12:39.959Z,18.60
2018-06-21T06:13:39.905Z,18.63
2018-06-21T06:14:39.855Z,18.63
2018-06-21T06:15:39.809Z,18.58
2018-06-21T06:16:39.790Z,18.56
2018-06-21T06:17:39.720Z,18.58
2018-06-21T06:18:39.677Z,18.41
2018-06-21T06:19:39.627Z,18.46
2018-06-21T06:20:39.581Z,18.41
2018-06-21T06:21:39.561Z,18.31
2018-06-21T06:22:39.491Z,18.28
2018-06-21T06:23:39.441Z,18.26
2018-06-21T06:24:39.400Z,18.20
2018-06-21T06:25:39.349Z,18.16
2018-06-21T06:26:39.333Z,18.10
2018-06-21T06:27:39.260Z,18.13
2018-06-21T06:28:39.233Z,18.04
2018-06-21T06:29:39.170Z,18.00
2018-06-21T06:30:39.120Z,18.03
2018-06-21T06:31:39.095Z,17.97
2018-06-21T06:32:39.028Z,18.01
2018-06-21T06:33:38.983Z,18.05
2018-06-21T06:34:38.936Z,17.95
2018-06-21T06:35:38.886Z,17.98
2018-06-21T06:36:38.865Z,18.03
2018-06-21T06:37:38.794Z,17.94
2018-06-21T06:38:38.753Z,17.80
2018-06-21T06:39:38.703Z,17.80
2018-06-21T06:40:38.655Z,17.68
2018-06-21T06:41:38.643Z,17.71
2018-06-21T06:42:38.560Z,17.75
2018-06-21T06:43:38.516Z,17.65
2018-06-21T06:44:38.465Z,17.65
2018-06-21T06:45:38.421Z,17.59
2018-06-21T06:46:45.515Z,17.63
2018-06-21T06:47:38.329Z,17.59
2018-06-21T06:48:38.281Z,17.53
2018-06-21T06:49:38.239Z,17.48
2018-06-21T06:50:38.187Z,17.31
2018-06-21T06:51:38.167Z,17.35
2018-06-21T06:52:38.092Z,17.41
2018-06-21T06:53:38.047Z,17.38
2018-06-21T06:54:38.003Z,17.29
2018-06-21T06:55:37.953Z,17.31
2018-06-21T06:56:37.936Z,17.30
2018-06-21T06:57:37.859Z,17.22
2018-06-21T06:58:37.814Z,17.16
2018-06-21T06:59:37.764Z,17.17
2018-06-21T07:00:37.719Z,17.19
2018-06-21T07:01:37.698Z,17.11
2018-06-21T07:02:37.625Z,16.98
2018-06-21T07:03:37.581Z,16.99
2018-06-21T07:04:37.527Z,16.98
2018-06-21T07:05:37.481Z,16.90
2018-06-21T07:06:37.459Z,16.87
2018-06-21T07:07:37.392Z,16.84
2018-06-21T07:08:37.342Z,16.71
2018-06-21T07:09:37.296Z,16.59
2018-06-21T07:10:37.246Z,16.57
2018-06-21T07:11:37.221Z,16.57
2018-06-21T07:12:37.151Z,16.41
2018-06-21T07:13:37.109Z,16.39
2018-06-21T07:14:37.054Z,16.34
2018-06-21T07:15:37.009Z,16.38
2018-06-21T07:16:36.989Z,16.29
2018-06-21T07:17:36.968Z,16.32
2018-06-21T07:18:36.868Z,16.20
2018-06-21T07:19:36.890Z,16.02
2018-06-21T07:20:36.773Z,16.05
2018-06-21T07:21:36.726Z,16.05
2018-06-21T07:22:36.701Z,16.10
2018-06-21T07:23:36.629Z,16.08
2018-06-21T07:24:36.584Z,16.09
2018-06-21T07:25:36.534Z,16.01
2018-06-21T07:26:36.484Z,16.05
2018-06-21T07:27:36.468Z,15.97
2018-06-21T07:28:36.392Z,15.98
2018-06-21T07:29:36.346Z,15.98
2018-06-21T07:30:36.296Z,16.08
2018-06-21T07:31:36.248Z,16.09
2018-06-21T07:32:36.230Z,16.15
2018-06-21T07:33:36.267Z,16.12
2018-06-21T07:34:36.106Z,16.08
2018-06-21T07:35:36.061Z,16.13
2018-06-21T07:36:36.015Z,16.26
2018-06-21T07:37:35.993Z,16.21
2018-06-21T07:38:35.923Z,16.16
2018-06-21T07:39:35.872Z,16.10
2018-06-21T07:40:35.827Z,16.17
2018-06-21T07:41:35.780Z,16.15
2018-06-21T07:42:35.755Z,16.20
2018-06-21T07:43:35.680Z,16.28
2018-06-21T07:44:35.634Z,16.21
2018-06-21T07:45:35.590Z,16.16
2018-06-21T07:46:35.540Z,16.21
2018-06-21T07:47:35.517Z,16.17
2018-06-21T07:48:35.442Z,16.21
2018-06-21T07:49:35.397Z,16.13
2018-06-21T07:50:35.351Z,16.21
2018-06-21T07:51:35.304Z,16.24
2018-06-21T07:52:35.280Z,16.17
2018-06-21T07:53:35.212Z,16.16
2018-06-21T07:54:35.169Z,16.16
2018-06-21T07:55:35.124Z,16.24
2018-06-21T07:56:35.070Z,16.10
2018-06-21T07:57:35.043Z,16.20
2018-06-21T07:58:42.717Z,16.25
2018-06-21T07:59:34.922Z,16.13
2018-06-21T08:00:34.877Z,16.26
2018-06-21T08:01:34.831Z,16.16
2018-06-21T08:02:34.807Z,16.28
2018-06-21T08:03:34.732Z,16.29
2018-06-21T08:04:34.682Z,16.32
2018-06-21T08:05:34.638Z,16.29
2018-06-21T08:06:34.591Z,16.34
2018-06-21T08:07:34.563Z,16.32
2018-06-21T08:08:34.498Z,16.35
2018-06-21T08:09:34.451Z,16.31
2018-06-21T08:10:34.407Z,16.41
2018-06-21T08:11:34.354Z,16.35
2018-06-21T08:12:34.332Z,16.38
2018-06-21T08:13:34.259Z,16.32
2018-06-21T08:14:34.209Z,16.35
2018-06-21T08:15:34.165Z,16.49
2018-06-21T08:16:34.114Z,16.51
2018-06-21T08:17:34.126Z,16.62
2018-06-21T08:18:34.020Z,16.62
2018-06-21T08:19:33.975Z,16.66
2018-06-21T08:20:33.924Z,16.96
2018-06-21T08:21:33.880Z,17.09
2018-06-21T08:22:33.850Z,17.29
2018-06-21T08:23:33.783Z,17.51
2018-06-21T08:24:33.739Z,17.70
2018-06-21T08:25:33.693Z,17.91
2018-06-21T08:26:33.643Z,17.93
2018-06-21T08:27:33.622Z,17.89
2018-06-21T08:28:33.552Z,17.83
2018-06-21T08:29:33.500Z,17.70
2018-06-21T08:30:33.456Z,17.67
2018-06-21T08:31:33.411Z,17.53
2018-06-21T08:32:33.386Z,17.42
2018-06-21T08:33:33.315Z,17.44
2018-06-21T08:34:33.271Z,17.29
2018-06-21T08:35:33.227Z,17.27
2018-06-21T08:36:33.174Z,17.11
2018-06-21T08:37:33.152Z,17.09
2018-06-21T08:38:33.085Z,16.99
2018-06-21T08:39:33.036Z,17.04
2018-06-21T08:40:32.991Z,16.89
2018-06-21T08:41:32.953Z,16.72
2018-06-21T08:42:32.922Z,16.61
2018-06-21T08:43:32.852Z,16.54
2018-06-21T08:44:32.804Z,16.44
2018-06-21T08:45:32.760Z,16.50
2018-06-21T08:46:32.713Z,16.46
2018-06-21T08:47:32.704Z,16.43
2018-06-21T08:48:32.618Z,16.51
2018-06-21T08:49:32.573Z,16.43
2018-06-21T08:50:32.523Z,16.54
2018-06-21T08:51:32.483Z,16.65
2018-06-21T08:52:32.428Z,16.66
2018-06-21T08:53:32.404Z,16.75
2018-06-21T08:54:32.336Z,16.79
2018-06-21T08:55:32.287Z,16.68
2018-06-21T08:56:32.243Z,16.71
2018-06-21T08:57:32.197Z,16.74
2018-06-21T08:58:32.173Z,16.76
2018-06-21T08:59:32.106Z,16.66
2018-06-21T09:00:32.055Z,16.74
2018-06-21T09:01:32.004Z,16.96
2018-06-21T09:02:31.961Z,16.93
2018-06-21T09:03:31.935Z,16.98
2018-06-21T09:04:31.870Z,17.11
2018-06-21T09:05:31.820Z,17.24
2018-06-21T09:06:31.772Z,17.31
2018-06-21T09:07:31.728Z,17.37
2018-06-21T09:08:31.702Z,17.27
2018-06-21T09:09:31.630Z,17.17
2018-06-21T09:10:31.588Z,17.04
2018-06-21T09:11:31.539Z,17.14
2018-06-21T09:12:39.279Z,17.12
2018-06-21T09:13:31.469Z,17.14
2018-06-21T09:14:31.400Z,17.14
2018-06-21T09:15:31.356Z,17.14
2018-06-21T09:16:31.307Z,17.30
2018-06-21T09:17:31.259Z,17.23
2018-06-21T09:18:31.242Z,17.19
2018-06-21T09:19:31.166Z,17.09
2018-06-21T09:20:31.125Z,16.90
2018-06-21T09:21:31.071Z,16.69
2018-06-21T09:22:31.026Z,16.61
2018-06-21T09:23:31.003Z,16.38
2018-06-21T09:24:30.931Z,16.28
2018-06-21T09:25:30.886Z,16.17
2018-06-21T09:26:30.839Z,16.20
2018-06-21T09:27:30.794Z,16.10
2018-06-21T09:28:30.768Z,16.02
2018-06-21T09:29:30.700Z,16.08
2018-06-21T09:30:30.656Z,16.21
2018-06-21T09:31:30.604Z,16.49
2018-06-21T09:32:30.560Z,16.54
2018-06-21T09:33:30.536Z,16.74
2018-06-21T09:34:30.465Z,16.86
2018-06-21T09:35:30.416Z,16.98
2018-06-21T09:36:30.372Z,16.98
2018-06-21T09:37:30.326Z,17.11
2018-06-21T09:38:30.302Z,17.14
2018-06-21T09:39:30.230Z,17.30
2018-06-21T09:40:30.184Z,17.30
2018-06-21T09:41:30.139Z,17.37
2018-06-21T09:42:30.097Z,17.35
2018-06-21T09:43:30.065Z,17.39
2018-06-21T09:44:29.998Z,17.44
2018-06-21T09:45:29.951Z,17.53
2018-06-21T09:46:33.872Z,17.57
2018-06-21T09:47:29.863Z,17.64
2018-06-21T09:48:29.835Z,17.64
2018-06-21T09:49:29.764Z,17.70
2018-06-21T09:50:29.720Z,17.67
2018-06-21T09:51:29.675Z,17.56
2018-06-21T09:52:29.681Z,17.59
2018-06-21T09:53:29.619Z,17.49
2018-06-21T09:54:29.533Z,17.37
2018-06-21T09:55:29.493Z,17.29
2018-06-21T09:56:29.440Z,17.11
2018-06-21T09:57:29.392Z,17.02
2018-06-21T09:58:29.348Z,16.89
2018-06-21T09:59:29.325Z,16.74
2018-06-21T10:00:29.260Z,16.75
2018-06-21T10:01:29.210Z,16.57
2018-06-21T10:02:29.162Z,16.47
2018-06-21T10:03:29.115Z,16.59
2018-06-21T10:04:29.093Z,16.44
2018-06-21T10:05:29.026Z,16.39
2018-06-21T10:06:28.972Z,16.35
2018-06-21T10:07:28.931Z,16.16
2018-06-21T10:08:28.924Z,16.21
2018-06-21T10:09:28.859Z,16.13
2018-06-21T10:10:28.790Z,16.09
2018-06-21T10:11:28.744Z,16.01
2018-06-21T10:12:28.697Z,15.97
2018-06-21T10:13:28.649Z,15.85
2018-06-21T10:14:28.629Z,15.90
2018-06-21T10:15:28.556Z,15.79
2018-06-21T10:16:28.510Z,15.58
2018-06-21T10:17:28.459Z,15.48
2018-06-21T10:18:28.415Z,15.51
2018-06-21T10:19:28.393Z,15.46
2018-06-21T10:20:28.342Z,15.40
2018-06-21T10:21:28.278Z,15.46
2018-06-21T10:22:28.226Z,15.69
2018-06-21T10:23:28.184Z,15.73
2018-06-21T10:24:28.155Z,15.75
2018-06-21T10:25:28.081Z,15.68
2018-06-21T10:26:28.040Z,15.65
2018-06-21T10:27:27.990Z,15.79
2018-06-21T10:28:27.944Z,15.83
2018-06-21T10:29:27.920Z,16.02
2018-06-21T10:30:27.849Z,16.09
2018-06-21T10:31:27.797Z,16.09
2018-06-21T10:32:27.753Z,16.29
2018-06-21T10:33:27.707Z,16.54
2018-06-21T10:34:27.681Z,16.62
2018-06-21T10:35:27.612Z,16.71
2018-06-21T10:36:27.565Z,16.69
2018-06-21T10:37:27.514Z,16.72
2018-06-21T10:38:27.466Z,16.62
2018-06-21T10:39:27.443Z,16.69
2018-06-21T10:40:27.373Z,16.68
2018-06-21T10:41:27.329Z,16.74
2018-06-21T10:42:27.281Z,16.76
2018-06-21T10:43:27.238Z,16.65
2018-06-21T10:44:27.215Z,16.69
2018-06-21T10:45:27.140Z,16.69
2018-06-21T10:46:27.093Z,16.75
2018-06-21T10:47:27.047Z,16.68
2018-06-21T10:48:26.997Z,16.82
2018-06-21T10:49:26.976Z,16.84
2018-06-21T10:50:26.907Z,16.87
2018-06-21T10:51:26.857Z,16.82
2018-06-21T10:52:26.809Z,16.65
2018-06-21T10:53:26.767Z,16.64
2018-06-21T10:54:26.742Z,16.75
2018-06-21T10:55:26.670Z,16.76
2018-06-21T10:56:26.628Z,16.68
2018-06-21T10:57:26.580Z,16.65
2018-06-21T10:58:26.530Z,16.62
2018-06-21T10:59:26.511Z,16.61
2018-06-21T11:00:26.434Z,16.57
2018-06-21T11:01:26.389Z,16.65
2018-06-21T11:02:26.341Z,16.69
2018-06-21T11:03:26.296Z,16.75
2018-06-21T11:04:26.272Z,16.74
2018-06-21T11:05:26.201Z,16.82
2018-06-21T11:06:26.151Z,17.01
2018-06-21T11:07:26.104Z,16.99
2018-06-21T11:08:26.059Z,16.98
2018-06-21T11:09:26.039Z,17.01
2018-06-21T11:10:25.966Z,17.05
2018-06-21T11:11:25.920Z,17.05
2018-06-21T11:12:25.871Z,16.94
2018-06-21T11:13:25.824Z,17.08
2018-06-21T11:14:25.799Z,17.09
2018-06-21T11:15:25.734Z,17.12
2018-06-21T11:16:25.683Z,17.12
2018-06-21T11:17:25.640Z,17.14
2018-06-21T11:18:25.596Z,17.17
2018-06-21T11:19:25.569Z,17.26
2018-06-21T11:20:25.499Z,17.14
2018-06-21T11:21:25.471Z,17.20
2018-06-21T11:22:25.402Z,17.12
2018-06-21T11:23:25.366Z,17.17
2018-06-21T11:24:25.353Z,17.14
2018-06-21T11:25:25.260Z,17.39
2018-06-21T11:26:25.217Z,17.30
2018-06-21T11:27:25.170Z,17.39
2018-06-21T11:28:25.120Z,17.33
2018-06-21T11:29:25.078Z,17.39
2018-06-21T11:30:25.050Z,17.44
2018-06-21T11:31:24.979Z,17.54
2018-06-21T11:32:24.940Z,17.53
2018-06-21T11:33:24.885Z,17.56
2018-06-21T11:34:24.837Z,17.59
2018-06-21T11:35:24.814Z,17.59
2018-06-21T11:36:24.747Z,17.71
2018-06-21T11:37:24.699Z,17.64
2018-06-21T11:38:24.659Z,17.67
2018-06-21T11:39:24.605Z,17.68
2018-06-21T11:40:24.582Z,17.85
2018-06-21T11:41:24.509Z,17.91
2018-06-21T11:42:24.462Z,18.05
2018-06-21T11:43:24.414Z,18.12
2018-06-21T11:44:24.383Z,18.16
2018-06-21T11:45:24.368Z,18.25
2018-06-21T11:46:24.274Z,18.30
2018-06-21T11:47:24.232Z,18.31
2018-06-21T11:48:24.180Z,18.31
2018-06-21T11:49:24.138Z,18.40
2018-06-21T11:50:24.113Z,18.38
2018-06-21T11:51:24.044Z,18.48
2018-06-21T11:52:24.049Z,18.43
2018-06-21T11:53:23.950Z,18.48
2018-06-21T11:54:23.905Z,18.58
2018-06-21T11:55:23.886Z,18.60
2018-06-21T11:56:23.808Z,18.56
2018-06-21T11:57:23.763Z,18.66
2018-06-21T11:58:23.718Z,18.62
2018-06-21T11:59:23.674Z,18.66
2018-06-21T12:00:23.649Z,18.62
2018-06-21T12:01:23.582Z,18.63
2018-06-21T12:02:23.532Z,18.67
2018-06-21T12:03:23.532Z,18.58
2018-06-21T12:04:23.440Z,18.55
2018-06-21T12:05:23.416Z,18.49
2018-06-21T12:06:23.346Z,18.44
2018-06-21T12:07:23.302Z,18.35
2018-06-21T12:08:23.263Z,18.09
2018-06-21T12:09:23.205Z,18.15
2018-06-21T12:10:23.185Z,18.04
2018-06-21T12:11:23.117Z,18.05
2018-06-21T12:12:23.076Z,18.18
2018-06-21T12:13:23.022Z,18.18
2018-06-21T12:14:22.979Z,18.25
2018-06-21T12:15:22.955Z,18.37
2018-06-21T12:16:22.881Z,18.48
2018-06-21T12:17:22.836Z,18.49
2018-06-21T12:18:22.791Z,18.58
2018-06-21T12:19:22.750Z,18.55
2018-06-21T12:20:22.718Z,18.56
2018-06-21T12:21:22.652Z,18.46
2018-06-21T12:22:22.602Z,18.56
2018-06-21T12:23:22.557Z,18.58
2018-06-21T12:24:22.513Z,18.50
2018-06-21T12:25:22.489Z,18.46
2018-06-21T12:26:22.448Z,18.40
2018-06-21T12:27:22.375Z,18.41
2018-06-21T12:28:22.325Z,18.31
2018-06-21T12:29:22.279Z,18.28
2018-06-21T12:30:22.261Z,18.31
2018-06-21T12:31:22.191Z,18.31
2018-06-21T12:32:22.141Z,18.37
2018-06-21T12:33:22.093Z,18.43
2018-06-21T12:34:22.049Z,18.43
2018-06-21T12:35:22.028Z,18.44
2018-06-21T12:36:21.952Z,18.50
2018-06-21T12:37:21.909Z,18.37
2018-06-21T12:38:21.862Z,18.31
2018-06-21T12:39:21.815Z,18.31
2018-06-21T12:40:21.787Z,18.37
2018-06-21T12:41:21.864Z,18.37
2018-06-21T12:42:21.682Z,18.33
2018-06-21T12:43:21.627Z,18.35
2018-06-21T12:44:21.606Z,18.33
2018-06-21T12:45:21.561Z,18.25
2018-06-21T12:46:21.489Z,18.30
2018-06-21T12:47:21.444Z,18.37
2018-06-21T12:48:21.394Z,18.34
2018-06-21T12:49:21.350Z,18.28
2018-06-21T12:50:21.327Z,18.31
2018-06-21T12:51:21.255Z,18.31
2018-06-21T12:52:21.214Z,18.30